Time;durP1;ratioP1;P1;durP2;ratioP2;P2;SDS_P1;SDS_P2;PMS_P1;PMS_P2;Temp;Humidity;BMP_temperature;BMP_pressure;BME280_temperature;BME280_humidity;BME280_pressure;Samples;Min_cycle;Max_cycle;Signal;HPM_P1;HPM_P2
2024/01/01 00:01:42;;;;;;;20.85;11.45;;;7.70;99.90;;;;;;5054278;28;20087;-70
2024/01/01 00:04:09;;;;;;;22.40;13.05;;;7.80;99.90;;;;;;5021538;28;20052;-70
2024/01/01 00:06:35;;;;;;;22.55;14.10;;;7.80;99.90;;;;;;5054326;28;20086;-70
2024/01/01 00:09:01;;;;;;;23.05;14.52;;;7.80;99.90;;;;;;5054315;28;20099;-71
2024/01/01 00:11:27;;;;;;;23.00;12.43;;;7.90;99.90;;;;;;5054042;28;20067;-70
2024/01/01 00:13:53;;;;;;;25.23;16.38;;;7.90;99.90;;;;;;5021099;28;20511;-71
2024/01/01 00:16:18;;;;;;;25.75;15.43;;;7.80;99.90;;;;;;5054156;28;20098;-71
2024/01/01 00:18:44;;;;;;;25.13;17.95;;;7.90;99.90;;;;;;5021322;28;20175;-72
2024/01/01 00:21:10;;;;;;;31.90;20.92;;;7.90;99.90;;;;;;5054073;28;20485;-70
2024/01/01 00:23:36;;;;;;;34.20;23.23;;;7.90;99.90;;;;;;5037826;28;20186;-70
2024/01/01 00:26:01;;;;;;;29.23;18.95;;;7.90;99.90;;;;;;5038068;28;20057;-70
2024/01/01 00:28:27;;;;;;;35.10;24.95;;;7.90;99.90;;;;;;5024642;28;20447;-71
2024/01/01 00:30:53;;;;;;;38.03;27.30;;;8.00;99.90;;;;;;5024668;28;20121;-71
2024/01/01 00:33:19;;;;;;;38.28;26.83;;;8.00;99.90;;;;;;5040991;28;20090;-71
2024/01/01 00:35:45;;;;;;;35.08;26.02;;;8.00;99.90;;;;;;5057481;28;20447;-71
2024/01/01 00:38:11;;;;;;;38.40;26.60;;;8.00;99.90;;;;;;5057528;28;20094;-71
2024/01/01 00:40:37;;;;;;;39.28;28.25;;;8.00;99.90;;;;;;5057962;28;20580;-71
2024/01/01 00:43:03;;;;;;;38.05;25.77;;;8.10;99.90;;;;;;5041111;28;20123;-71
2024/01/01 00:45:29;;;;;;;34.97;24.80;;;8.00;99.90;;;;;;5057648;28;20055;-71
2024/01/01 00:47:55;;;;;;;35.40;26.00;;;8.00;99.90;;;;;;5057416;28;20063;-71
2024/01/01 00:50:21;;;;;;;30.92;22.05;;;8.00;99.90;;;;;;5040780;28;20044;-71
2024/01/01 00:52:46;;;;;;;32.70;20.45;;;8.10;99.90;;;;;;5040706;28;20049;-71
2024/01/01 00:55:12;;;;;;;25.98;17.92;;;8.10;99.90;;;;;;5040640;28;20075;-71
2024/01/01 00:57:38;;;;;;;30.30;19.63;;;8.10;99.90;;;;;;5040560;28;20040;-71
2024/01/01 01:00:05;;;;;;;27.13;16.48;;;8.10;99.90;;;;;;5040394;28;20480;-71
2024/01/01 01:02:30;;;;;;;30.75;19.35;;;8.10;99.90;;;;;;5057250;28;20143;-71
2024/01/01 01:04:56;;;;;;;28.58;18.52;;;8.10;99.90;;;;;;5024363;28;20052;-70
2024/01/01 01:07:22;;;;;;;30.48;18.88;;;8.10;99.90;;;;;;5040365;28;20051;-71
2024/01/01 01:09:48;;;;;;;29.23;18.63;;;8.10;99.90;;;;;;5056914;28;20055;-71
2024/01/01 01:12:16;;;;;;;29.45;19.98;;;8.20;99.90;;;;;;5056918;28;20117;-71
2024/01/01 01:14:42;;;;;;;31.63;19.52;;;8.20;99.90;;;;;;5056781;28;20044;-71
2024/01/01 01:17:08;;;;;;;30.17;19.92;;;8.10;99.90;;;;;;5023779;28;20072;-71
2024/01/01 01:19:34;;;;;;;32.92;20.33;;;8.10;99.90;;;;;;5023584;28;20071;-71
2024/01/01 01:22:00;;;;;;;32.08;19.40;;;8.10;99.90;;;;;;5040131;28;20489;-71
2024/01/01 01:24:26;;;;;;;32.25;20.05;;;8.10;99.90;;;;;;5056701;28;20404;-72
2024/01/01 01:26:52;;;;;;;30.65;18.55;;;8.10;99.90;;;;;;5057045;28;20508;-74
2024/01/01 01:29:18;;;;;;;33.83;21.15;;;8.10;99.90;;;;;;5056655;28;20075;-71
2024/01/01 01:31:46;;;;;;;33.83;20.73;;;8.10;99.90;;;;;;5056877;28;20048;-71
2024/01/01 01:34:12;;;;;;;30.10;19.00;;;8.10;99.90;;;;;;5024013;28;20044;-71
2024/01/01 01:36:38;;;;;;;30.70;19.90;;;8.10;99.90;;;;;;5056510;28;20067;-71
2024/01/01 01:39:04;;;;;;;33.13;20.50;;;8.10;99.90;;;;;;5055941;28;20040;-71
2024/01/01 01:41:30;;;;;;;28.60;19.92;;;8.10;99.90;;;;;;5023266;28;20047;-72
2024/01/01 01:43:56;;;;;;;32.95;19.15;;;8.10;99.90;;;;;;5039810;28;20524;-72
2024/01/01 01:46:23;;;;;;;31.70;19.27;;;8.10;99.90;;;;;;5039557;28;20040;-72
2024/01/01 01:48:49;;;;;;;29.52;18.70;;;8.10;99.90;;;;;;5039944;28;20504;-71
2024/01/01 01:51:15;;;;;;;30.48;17.65;;;8.10;99.90;;;;;;5056234;28;20104;-71
2024/01/01 01:53:41;;;;;;;27.38;16.55;;;8.10;99.90;;;;;;5023432;28;20486;-71
2024/01/01 01:56:07;;;;;;;27.25;17.15;;;8.10;99.90;;;;;;5039494;28;20045;-71
2024/01/01 01:58:34;;;;;;;29.35;18.15;;;8.10;99.90;;;;;;5039629;28;20094;-71
2024/01/01 02:01:00;;;;;;;30.98;18.33;;;8.10;99.90;;;;;;5055985;28;20517;-71
2024/01/01 02:03:26;;;;;;;23.48;14.65;;;8.10;99.90;;;;;;5056237;28;20044;-71
2024/01/01 02:05:54;;;;;;;29.15;18.10;;;8.10;99.90;;;;;;5039399;28;20040;-71
2024/01/01 02:08:21;;;;;;;31.00;19.00;;;8.00;99.90;;;;;;5039895;28;20040;-71
2024/01/01 02:10:47;;;;;;;29.17;16.85;;;8.10;99.90;;;;;;5022794;28;20052;-71
2024/01/01 02:13:24;;;;;;;28.10;17.35;;;8.10;99.90;;;;;;5055851;28;20127;-71
2024/01/01 02:15:50;;;;;;;27.63;16.92;;;8.00;99.90;;;;;;5039074;28;20040;-71
2024/01/01 02:18:16;;;;;;;25.45;16.35;;;8.10;99.90;;;;;;5055810;28;20063;-71
2024/01/01 02:20:42;;;;;;;29.30;16.70;;;8.00;99.90;;;;;;5039170;28;20040;-71
2024/01/01 02:23:08;;;;;;;26.67;15.98;;;8.00;99.90;;;;;;5022848;28;20043;-71
2024/01/01 02:25:33;;;;;;;23.73;16.05;;;8.00;99.90;;;;;;5022491;28;20040;-71
2024/01/01 02:27:59;;;;;;;28.00;17.42;;;8.00;99.90;;;;;;5022462;28;20040;-71
2024/01/01 02:30:25;;;;;;;24.77;16.63;;;8.10;99.90;;;;;;5055424;28;20086;-71
2024/01/01 02:32:51;;;;;;;26.35;16.98;;;8.00;99.90;;;;;;5055662;28;20127;-71
2024/01/01 02:35:16;;;;;;;27.48;16.05;;;8.00;99.90;;;;;;5038887;28;20037;-71
2024/01/01 02:37:42;;;;;;;25.75;15.88;;;8.00;99.90;;;;;;5038847;28;20036;-75
2024/01/01 02:40:09;;;;;;;26.65;14.40;;;7.90;99.90;;;;;;5055374;28;20041;-74
2024/01/01 02:42:35;;;;;;;20.08;12.45;;;7.90;99.90;;;;;;5055517;28;20040;-74
2024/01/01 02:45:01;;;;;;;16.15;9.35;;;7.90;99.90;;;;;;5055383;28;20489;-74
2024/01/01 02:47:26;;;;;;;17.17;9.80;;;7.90;99.90;;;;;;5006133;28;20052;-74
2024/01/01 02:49:52;;;;;;;18.15;9.57;;;7.90;99.90;;;;;;5054981;28;20040;-74
2024/01/01 02:52:18;;;;;;;15.93;8.55;;;7.90;99.90;;;;;;5038903;28;20050;-74
2024/01/01 02:54:44;;;;;;;15.77;7.70;;;7.90;99.90;;;;;;5038374;28;20036;-74
2024/01/01 02:57:09;;;;;;;12.82;6.60;;;7.90;99.90;;;;;;5055027;28;20548;-74
2024/01/01 02:59:35;;;;;;;15.98;6.88;;;7.90;99.90;;;;;;5038567;28;20033;-74
2024/01/01 03:02:01;;;;;;;17.02;6.75;;;7.90;99.90;;;;;;5021980;28;20505;-74
2024/01/01 03:04:31;;;;;;;12.77;5.82;;;7.90;99.90;;;;;;5054923;28;20048;-74
2024/01/01 03:06:57;;;;;;;12.77;6.47;;;7.90;99.90;;;;;;5055204;28;20555;-74
2024/01/01 03:09:23;;;;;;;14.45;6.38;;;7.80;99.90;;;;;;5054920;28;20106;-74
2024/01/01 03:11:49;;;;;;;13.13;6.07;;;7.80;99.90;;;;;;5021755;28;20098;-74
2024/01/01 03:14:15;;;;;;;11.95;4.82;;;7.70;99.90;;;;;;5021936;28;20045;-74
2024/01/01 03:16:41;;;;;;;11.95;4.68;;;7.60;99.90;;;;;;5054680;28;20040;-74
2024/01/01 03:19:06;;;;;;;11.30;4.43;;;7.60;99.90;;;;;;5054945;28;20040;-74
2024/01/01 03:21:32;;;;;;;10.75;4.22;;;7.60;99.90;;;;;;5021825;28;20123;-74
2024/01/01 03:23:58;;;;;;;13.43;4.57;;;7.60;99.90;;;;;;5055020;28;20135;-75
2024/01/01 03:26:23;;;;;;;11.75;4.55;;;7.60;99.90;;;;;;5054882;28;20033;-75
2024/01/01 03:28:49;;;;;;;10.27;4.40;;;7.50;99.90;;;;;;5038288;28;20125;-75
2024/01/01 03:31:15;;;;;;;10.88;4.05;;;7.50;99.90;;;;;;5021563;28;20072;-75
2024/01/01 03:33:41;;;;;;;11.13;4.13;;;7.50;99.90;;;;;;5038345;28;20048;-74
2024/01/01 03:36:07;;;;;;;10.82;4.05;;;7.50;99.90;;;;;;5005237;28;20050;-75
2024/01/01 03:38:32;;;;;;;11.32;3.75;;;7.50;99.90;;;;;;5054579;28;20072;-75
2024/01/01 03:40:58;;;;;;;12.40;4.07;;;7.50;99.90;;;;;;5054553;28;20117;-75
2024/01/01 03:43:24;;;;;;;9.57;3.80;;;7.40;99.90;;;;;;5021792;28;20507;-74
2024/01/01 03:45:50;;;;;;;11.98;4.10;;;7.30;99.90;;;;;;5054458;28;20040;-75
2024/01/01 03:48:15;;;;;;;11.38;4.20;;;7.20;99.90;;;;;;5037880;28;20051;-69
2024/01/01 03:50:41;;;;;;;9.23;3.72;;;7.20;99.90;;;;;;5005068;28;20040;-69
2024/01/01 03:53:07;;;;;;;10.65;3.80;;;7.20;99.90;;;;;;5037769;28;20381;-69
2024/01/01 03:55:33;;;;;;;11.00;3.50;;;7.10;99.90;;;;;;5054267;28;20463;-69
2024/01/01 03:57:58;;;;;;;10.63;3.35;;;7.10;99.90;;;;;;5054274;28;20467;-69
2024/01/01 04:00:26;;;;;;;10.77;3.42;;;7.10;99.90;;;;;;5004751;28;20056;-69
2024/01/01 04:02:52;;;;;;;9.30;3.17;;;7.10;99.90;;;;;;5041623;28;20047;-70
2024/01/01 04:05:18;;;;;;;8.52;3.03;;;7.10;99.90;;;;;;5008699;28;20408;-69
2024/01/01 04:07:43;;;;;;;10.18;3.47;;;7.00;99.90;;;;;;5041624;28;20037;-69
2024/01/01 04:10:10;;;;;;;10.82;3.55;;;7.00;99.90;;;;;;5041519;28;20044;-69
2024/01/01 04:12:36;;;;;;;11.05;3.08;;;7.10;99.90;;;;;;5058116;28;20051;-69
2024/01/01 04:15:03;;;;;;;9.50;3.30;;;7.10;99.90;;;;;;5025003;28;20041;-69
2024/01/01 04:17:30;;;;;;;11.05;3.70;;;7.10;99.90;;;;;;5057991;28;20120;-69
2024/01/01 04:19:55;;;;;;;10.63;3.50;;;7.00;99.90;;;;;;5025233;28;20480;-69
2024/01/01 04:22:21;;;;;;;9.40;3.17;;;7.00;99.90;;;;;;5041592;28;20041;-69
2024/01/01 04:24:47;;;;;;;9.68;3.40;;;7.00;99.90;;;;;;5041548;28;20093;-69
2024/01/01 04:27:13;;;;;;;9.82;3.50;;;7.00;99.90;;;;;;5041500;28;20511;-70
2024/01/01 04:29:38;;;;;;;8.98;3.40;;;7.00;99.90;;;;;;5041286;28;20056;-69
2024/01/01 04:32:04;;;;;;;9.68;3.25;;;7.00;99.90;;;;;;5057923;28;20484;-70
2024/01/01 04:34:30;;;;;;;9.80;3.10;;;7.00;99.90;;;;;;5041292;28;20070;-70
2024/01/01 04:36:56;;;;;;;9.68;3.35;;;7.00;99.90;;;;;;5057592;28;20048;-69
2024/01/01 04:39:22;;;;;;;9.68;3.22;;;7.00;99.90;;;;;;5041147;28;20032;-70
2024/01/01 04:41:47;;;;;;;8.40;3.15;;;7.00;99.90;;;;;;5041234;28;20098;-70
2024/01/01 04:44:13;;;;;;;10.05;3.10;;;7.00;99.90;;;;;;5057816;28;20033;-70
2024/01/01 04:46:39;;;;;;;10.25;3.30;;;7.00;99.90;;;;;;5024695;28;20127;-70
2024/01/01 04:49:05;;;;;;;11.23;3.45;;;7.00;99.90;;;;;;5041095;28;20048;-71
2024/01/01 04:51:30;;;;;;;11.55;3.65;;;7.00;99.90;;;;;;5057656;28;20037;-70
2024/01/01 04:53:56;;;;;;;11.48;3.35;;;7.00;99.90;;;;;;5040883;28;20123;-70
2024/01/01 04:56:23;;;;;;;11.55;3.63;;;7.00;99.90;;;;;;5040688;28;20075;-69
2024/01/01 04:58:51;;;;;;;11.02;3.53;;;6.90;99.90;;;;;;5024721;28;20032;-70
2024/01/01 05:01:17;;;;;;;10.50;3.35;;;6.90;99.90;;;;;;5040332;28;20061;-70
2024/01/01 05:03:43;;;;;;;11.35;3.40;;;6.90;99.90;;;;;;5024075;28;20170;-70
2024/01/01 05:06:09;;;;;;;13.63;3.80;;;6.90;99.90;;;;;;5040750;28;20044;-70
2024/01/01 05:08:34;;;;;;;13.30;3.80;;;6.90;99.90;;;;;;5040711;28;20049;-70
2024/01/01 05:11:06;;;;;;;15.75;3.75;;;6.90;99.90;;;;;;5040361;28;20046;-70
2024/01/01 05:13:32;;;;;;;10.45;3.20;;;6.90;99.90;;;;;;5055918;28;20378;-70
2024/01/01 05:15:58;;;;;;;13.15;3.70;;;6.90;99.90;;;;;;5040156;28;20043;-70
2024/01/01 05:18:24;;;;;;;14.27;3.70;;;6.90;99.90;;;;;;5057133;28;20055;-70
2024/01/01 05:20:49;;;;;;;11.43;3.33;;;6.90;99.90;;;;;;5040121;28;20106;-70
2024/01/01 05:23:15;;;;;;;11.63;3.53;;;6.90;99.90;;;;;;5040484;28;20079;-70
2024/01/01 05:25:41;;;;;;;12.50;3.20;;;6.80;99.90;;;;;;5040262;28;20036;-71
2024/01/01 05:28:08;;;;;;;16.00;3.78;;;6.90;99.90;;;;;;5056583;28;20136;-70
2024/01/01 05:30:36;;;;;;;13.18;3.58;;;6.90;99.90;;;;;;5056881;28;20405;-70
2024/01/01 05:33:02;;;;;;;14.95;3.70;;;6.90;99.90;;;;;;5023646;28;20048;-70
2024/01/01 05:35:28;;;;;;;14.80;3.65;;;6.90;99.90;;;;;;5039871;28;20093;-70
2024/01/01 05:37:55;;;;;;;11.43;2.83;;;6.90;99.90;;;;;;5040309;28;20071;-70
2024/01/01 05:40:21;;;;;;;16.85;3.63;;;6.90;99.90;;;;;;5056517;28;20040;-70
2024/01/01 05:42:46;;;;;;;15.02;3.53;;;7.00;99.90;;;;;;5039766;28;20105;-70
2024/01/01 05:45:12;;;;;;;16.38;3.60;;;7.00;99.90;;;;;;5039702;28;20040;-70
2024/01/01 05:47:38;;;;;;;14.68;3.40;;;7.00;99.90;;;;;;5056337;28;20063;-70
2024/01/01 05:50:04;;;;;;;12.70;3.00;;;7.00;99.90;;;;;;5006826;28;20076;-70
2024/01/01 05:52:30;;;;;;;13.13;3.50;;;7.00;99.90;;;;;;5056202;28;20048;-70
2024/01/01 05:54:56;;;;;;;15.90;3.90;;;7.00;99.90;;;;;;5039806;28;20040;-70
2024/01/01 05:57:21;;;;;;;12.88;3.55;;;7.00;99.90;;;;;;5039479;28;20046;-70
2024/01/01 05:59:47;;;;;;;14.98;3.50;;;7.10;99.90;;;;;;5039610;28;20530;-70
2024/01/01 06:02:13;;;;;;;17.67;3.78;;;7.10;99.90;;;;;;5039283;28;20048;-70
2024/01/01 06:04:39;;;;;;;13.48;2.95;;;7.10;99.90;;;;;;5056247;28;20098;-70
2024/01/01 06:07:04;;;;;;;14.65;3.60;;;7.00;99.90;;;;;;5039420;28;20094;-76
2024/01/01 06:09:30;;;;;;;15.60;3.70;;;7.10;99.90;;;;;;5055898;28;20052;-76
2024/01/01 06:11:56;;;;;;;17.08;3.42;;;7.00;99.90;;;;;;5039348;28;20554;-76
2024/01/01 06:14:22;;;;;;;17.55;3.80;;;7.00;99.90;;;;;;5039147;28;20040;-76
2024/01/01 06:16:47;;;;;;;12.40;3.08;;;7.00;99.90;;;;;;5006325;28;20408;-76
2024/01/01 06:19:13;;;;;;;16.85;3.90;;;7.00;99.90;;;;;;5039150;28;20041;-75
2024/01/01 06:21:39;;;;;;;16.05;4.20;;;7.00;99.90;;;;;;5039415;28;20035;-76
2024/01/01 06:24:06;;;;;;;13.70;3.40;;;7.00;99.90;;;;;;5039261;28;20041;-75
2024/01/01 06:26:31;;;;;;;12.55;3.13;;;7.00;99.90;;;;;;5038973;28;20044;-75
2024/01/01 06:28:58;;;;;;;14.10;3.53;;;7.10;99.90;;;;;;5055456;28;20043;-75
2024/01/01 06:31:24;;;;;;;17.10;3.75;;;7.00;99.90;;;;;;5038835;28;20040;-75
2024/01/01 06:33:50;;;;;;;15.27;3.63;;;7.00;99.90;;;;;;5039188;28;20448;-75
2024/01/01 06:36:16;;;;;;;14.35;3.70;;;7.00;99.90;;;;;;5038722;28;20451;-75
2024/01/01 06:38:42;;;;;;;15.43;3.33;;;7.00;99.90;;;;;;5022249;28;20044;-75
2024/01/01 06:41:08;;;;;;;16.45;3.50;;;7.00;99.90;;;;;;5055371;28;20086;-76
2024/01/01 06:43:34;;;;;;;14.75;3.65;;;7.00;99.90;;;;;;5022476;28;20427;-75
2024/01/01 06:46:00;;;;;;;13.18;3.53;;;7.00;99.90;;;;;;5038579;28;20040;-75
2024/01/01 06:48:25;;;;;;;15.57;4.18;;;7.10;99.90;;;;;;5022390;28;20094;-76
2024/01/01 06:50:51;;;;;;;14.85;4.03;;;7.00;99.90;;;;;;5055162;28;20051;-76
2024/01/01 06:53:17;;;;;;;17.17;3.65;;;7.10;99.90;;;;;;5038654;28;20447;-76
2024/01/01 06:55:43;;;;;;;14.88;3.45;;;7.00;99.90;;;;;;5038470;28;20047;-76
2024/01/01 06:58:08;;;;;;;14.80;3.42;;;7.10;99.90;;;;;;5055051;28;20041;-76
2024/01/01 07:00:34;;;;;;;13.50;3.72;;;7.10;99.90;;;;;;5035103;28;20135;-76
2024/01/01 07:03:00;;;;;;;13.57;3.28;;;7.10;99.90;;;;;;5035333;28;20044;-76
2024/01/01 07:05:28;;;;;;;13.35;3.72;;;7.10;99.90;;;;;;5018733;28;20041;-76
2024/01/01 07:07:55;;;;;;;13.82;3.50;;;7.10;99.90;;;;;;5035397;28;20056;-76
2024/01/01 07:10:21;;;;;;;14.73;3.78;;;7.10;99.90;;;;;;5002772;28;20382;-76
2024/01/01 07:12:46;;;;;;;15.48;4.05;;;7.00;99.90;;;;;;5018451;28;20059;-76
2024/01/01 07:15:12;;;;;;;13.32;3.60;;;7.00;99.90;;;;;;5002041;28;20045;-75
2024/01/01 07:17:38;;;;;;;12.48;3.72;;;7.00;99.90;;;;;;5002543;28;20477;-71
2024/01/01 07:20:04;;;;;;;14.38;3.67;;;6.90;99.90;;;;;;5035115;28;20033;-70
2024/01/01 07:22:30;;;;;;;16.17;3.60;;;7.00;99.90;;;;;;5002212;28;20041;-70
2024/01/01 07:24:56;;;;;;;14.57;3.60;;;6.90;99.90;;;;;;5034817;28;20112;-71
2024/01/01 07:27:22;;;;;;;9.80;3.20;;;6.90;99.90;;;;;;5034867;28;20124;-70
2024/01/01 07:29:48;;;;;;;13.13;3.60;;;7.00;99.90;;;;;;5018378;28;20045;-71
2024/01/01 07:32:13;;;;;;;15.02;3.58;;;7.00;99.90;;;;;;5018279;28;20045;-71
2024/01/01 07:34:39;;;;;;;13.65;3.67;;;6.90;99.90;;;;;;5018386;28;20041;-71
2024/01/01 07:37:06;;;;;;;14.85;3.38;;;6.90;99.90;;;;;;5021050;28;20124;-71
2024/01/01 07:39:32;;;;;;;15.60;4.15;;;6.90;99.90;;;;;;5039318;28;20496;-71
2024/01/01 07:41:58;;;;;;;13.00;3.97;;;6.90;99.90;;;;;;5038987;28;20041;-70
2024/01/01 07:44:24;;;;;;;13.60;4.07;;;6.90;99.90;;;;;;5022400;28;20060;-70
2024/01/01 07:46:50;;;;;;;14.38;3.88;;;6.90;99.90;;;;;;5022397;28;20052;-71
2024/01/01 07:49:16;;;;;;;13.32;4.18;;;6.90;99.90;;;;;;5022608;28;20401;-71
2024/01/01 07:51:42;;;;;;;15.68;4.05;;;6.90;99.90;;;;;;5022510;28;20045;-70
2024/01/01 07:54:08;;;;;;;13.18;4.07;;;6.90;99.90;;;;;;5021985;28;20045;-70
2024/01/01 07:56:37;;;;;;;13.48;4.10;;;7.00;99.90;;;;;;5038354;28;20037;-71
2024/01/01 07:59:03;;;;;;;12.35;3.97;;;6.90;99.90;;;;;;5022164;28;20033;-71
2024/01/01 08:01:29;;;;;;;14.50;3.85;;;7.00;99.90;;;;;;5034884;28;20048;-70
2024/01/01 08:03:55;;;;;;;18.33;4.57;;;6.90;99.90;;;;;;5058651;28;20529;-70
2024/01/01 08:06:21;;;;;;;14.57;4.30;;;6.90;99.90;;;;;;5058272;28;20036;-70
2024/01/01 08:08:46;;;;;;;16.35;4.38;;;7.00;99.90;;;;;;5041882;28;20412;-70
2024/01/01 08:11:13;;;;;;;16.13;4.22;;;7.00;99.90;;;;;;5041477;28;20040;-70
2024/01/01 08:13:39;;;;;;;14.73;4.43;;;7.00;99.90;;;;;;5025164;28;20385;-70
2024/01/01 08:16:05;;;;;;;12.98;4.18;;;7.00;99.90;;;;;;5025068;28;20055;-70
2024/01/01 08:18:31;;;;;;;14.75;4.25;;;7.10;99.90;;;;;;5058012;28;20040;-70
2024/01/01 08:20:57;;;;;;;15.95;5.10;;;7.00;99.90;;;;;;5057903;28;20412;-70
2024/01/01 08:23:23;;;;;;;17.13;4.80;;;7.10;99.90;;;;;;5041355;28;20548;-71
2024/01/01 08:25:49;;;;;;;12.35;3.90;;;7.10;99.90;;;;;;5057836;28;20481;-70
2024/01/01 08:28:14;;;;;;;12.80;4.22;;;7.10;99.90;;;;;;5057944;28;20074;-77
2024/01/01 08:30:43;;;;;;;13.15;4.15;;;7.10;99.90;;;;;;5057798;28;20415;-76
2024/01/01 08:33:09;;;;;;;12.77;3.72;;;7.10;99.90;;;;;;5041106;28;20055;-75
2024/01/01 08:35:35;;;;;;;12.23;3.65;;;7.10;99.90;;;;;;5057762;28;20045;-75
2024/01/01 08:38:00;;;;;;;13.77;4.15;;;7.20;99.90;;;;;;5057924;28;20485;-76
2024/01/01 08:40:26;;;;;;;14.82;4.30;;;7.20;99.90;;;;;;5057574;28;20044;-76
2024/01/01 08:42:52;;;;;;;13.20;3.97;;;7.20;99.90;;;;;;5040956;28;20036;-75
2024/01/01 08:45:19;;;;;;;14.38;4.32;;;7.20;99.90;;;;;;5041022;28;20055;-75
2024/01/01 08:47:47;;;;;;;12.90;3.83;;;7.20;99.90;;;;;;5040547;28;20041;-75
2024/01/01 08:50:14;;;;;;;12.05;3.83;;;7.30;99.90;;;;;;5040889;28;20108;-76
2024/01/01 08:52:42;;;;;;;11.52;3.70;;;7.20;99.90;;;;;;5040757;28;20040;-76
2024/01/01 08:55:08;;;;;;;13.20;3.72;;;7.30;99.90;;;;;;5040901;28;20051;-76
2024/01/01 08:57:34;;;;;;;11.60;3.78;;;7.30;99.90;;;;;;5057288;28;20119;-75
2024/01/01 09:00:00;;;;;;;13.07;3.78;;;7.30;99.90;;;;;;5024459;28;20178;-76
2024/01/01 09:02:27;;;;;;;14.10;3.50;;;7.40;99.90;;;;;;5040786;28;20051;-77
2024/01/01 09:04:52;;;;;;;11.10;3.35;;;7.40;99.90;;;;;;5057065;28;20044;-76
2024/01/01 09:07:20;;;;;;;12.80;3.28;;;7.30;99.90;;;;;;5040800;28;20040;-76
2024/01/01 09:09:46;;;;;;;12.93;3.65;;;7.40;99.90;;;;;;5057050;28;20062;-77
2024/01/01 09:12:12;;;;;;;13.25;3.70;;;7.40;99.90;;;;;;5040363;28;20097;-77
2024/01/01 09:14:38;;;;;;;10.50;3.47;;;7.40;99.90;;;;;;5040427;28;20493;-77
2024/01/01 09:17:07;;;;;;;11.27;3.63;;;7.40;99.90;;;;;;5007703;28;20091;-77
2024/01/01 09:19:33;;;;;;;13.13;3.53;;;7.40;99.90;;;;;;5008403;28;20041;-75
2024/01/01 09:22:00;;;;;;;11.38;3.25;;;7.40;99.90;;;;;;5040409;28;20036;-75
2024/01/01 09:24:26;;;;;;;13.18;3.40;;;7.40;99.90;;;;;;5008088;28;20040;-75
2024/01/01 09:26:52;;;;;;;13.35;3.42;;;7.30;99.90;;;;;;5056694;28;20047;-75
2024/01/01 09:29:18;;;;;;;15.27;3.85;;;7.30;99.90;;;;;;5007354;28;20044;-74
2024/01/01 09:31:44;;;;;;;10.38;3.63;;;7.30;99.90;;;;;;5023777;28;20044;-75
2024/01/01 09:34:10;;;;;;;10.50;3.67;;;7.40;99.90;;;;;;5056607;28;20044;-76
2024/01/01 09:36:36;;;;;;;12.32;4.00;;;7.30;99.90;;;;;;5023694;28;20503;-76
2024/01/01 09:39:01;;;;;;;11.75;3.90;;;7.40;99.90;;;;;;5056447;28;20041;-70
2024/01/01 09:41:28;;;;;;;12.68;3.50;;;7.40;99.90;;;;;;5039746;28;20570;-70
2024/01/01 09:43:54;;;;;;;10.98;3.50;;;7.40;99.90;;;;;;5039984;28;20045;-70
2024/01/01 09:46:21;;;;;;;11.52;3.90;;;7.40;99.90;;;;;;5056573;28;20480;-70
2024/01/01 09:48:47;;;;;;;12.23;3.92;;;7.50;99.90;;;;;;5056469;28;20124;-70
2024/01/01 09:51:13;;;;;;;13.30;3.75;;;7.40;99.90;;;;;;5039764;28;20121;-71
2024/01/01 09:53:40;;;;;;;11.43;3.97;;;7.50;99.90;;;;;;5039613;28;20051;-71
2024/01/01 09:56:06;;;;;;;13.35;3.80;;;7.50;99.90;;;;;;5056167;28;20048;-70
2024/01/01 09:58:44;;;;;;;15.13;4.18;;;7.50;99.90;;;;;;5038976;28;20040;-71
2024/01/01 10:01:16;;;;;;;11.68;3.85;;;7.50;99.90;;;;;;5039264;28;20063;-71
2024/01/01 10:03:42;;;;;;;13.48;4.07;;;7.50;99.90;;;;;;5040022;28;20139;-70
2024/01/01 10:06:11;;;;;;;14.05;4.07;;;7.50;99.90;;;;;;5039954;28;20076;-71
2024/01/01 10:08:38;;;;;;;18.08;4.55;;;7.50;99.90;;;;;;5056134;28;20606;-71
2024/01/01 10:11:19;;;;;;;12.20;3.95;;;7.40;99.90;;;;;;5039370;28;20044;-71
2024/01/01 10:13:45;;;;;;;12.80;3.50;;;7.40;99.90;;;;;;5055773;28;20075;-71
2024/01/01 10:16:25;;;;;;;11.98;4.03;;;7.50;99.90;;;;;;5055658;28;20048;-71
2024/01/01 10:18:56;;;;;;;14.88;4.22;;;7.40;99.90;;;;;;5055949;28;20040;-71
2024/01/01 10:21:30;;;;;;;14.68;4.18;;;7.40;99.90;;;;;;5038971;28;20074;-71
2024/01/01 10:23:57;;;;;;;11.52;3.80;;;7.40;99.90;;;;;;5023171;28;20051;-71
2024/01/01 10:26:23;;;;;;;13.18;3.92;;;7.50;99.90;;;;;;5039247;28;20047;-71
2024/01/01 10:28:49;;;;;;;11.77;3.90;;;7.40;99.90;;;;;;5055846;28;20378;-71
2024/01/01 10:31:18;;;;;;;12.32;3.80;;;7.40;99.90;;;;;;5038862;28;20047;-71
2024/01/01 10:33:48;;;;;;;13.27;4.20;;;7.40;99.90;;;;;;5039561;28;20135;-71
2024/01/01 10:36:16;;;;;;;10.73;4.05;;;7.40;99.90;;;;;;5055312;28;20047;-71
2024/01/01 10:38:45;;;;;;;12.23;3.95;;;7.50;99.90;;;;;;5038773;28;20049;-71
2024/01/01 10:41:12;;;;;;;13.23;3.85;;;7.40;99.90;;;;;;5055322;28;20086;-71
2024/01/01 10:43:40;;;;;;;12.40;3.78;;;7.50;99.90;;;;;;5038784;28;20127;-72
2024/01/01 10:46:06;;;;;;;13.23;4.10;;;7.40;99.90;;;;;;5055552;28;20570;-71
2024/01/01 10:48:35;;;;;;;12.57;4.10;;;7.50;99.90;;;;;;5038737;28;20044;-71
2024/01/01 10:51:41;;;;;;;13.23;4.13;;;7.50;99.90;;;;;;5055167;28;20049;-71
2024/01/01 10:54:22;;;;;;;14.80;4.20;;;7.50;99.90;;;;;;5055313;28;20423;-71
2024/01/01 10:57:07;;;;;;;10.13;3.85;;;7.50;99.90;;;;;;5038679;28;20495;-71
2024/01/01 11:00:01;;;;;;;12.10;3.72;;;7.50;99.90;;;;;;5038525;28;20032;-71
2024/01/01 11:02:27;;;;;;;10.27;3.50;;;7.50;99.90;;;;;;5038382;28;20149;-71
2024/01/01 11:05:10;;;;;;;12.65;3.53;;;7.40;99.90;;;;;;5038404;28;20040;-71
2024/01/01 11:07:54;;;;;;;11.82;3.28;;;7.50;99.90;;;;;;5038635;28;20037;-71
2024/01/01 11:10:43;;;;;;;10.43;2.80;;;7.50;99.90;;;;;;5038310;28;20097;-71
2024/01/01 11:13:33;;;;;;;12.00;3.00;;;7.50;99.90;;;;;;5021901;28;20040;-72
2024/01/01 11:16:00;;;;;;;11.32;2.55;;;7.50;99.90;;;;;;5054733;28;20554;-70
2024/01/01 11:18:34;;;;;;;9.48;2.70;;;7.60;99.90;;;;;;5021936;28;20119;-71
2024/01/01 11:21:01;;;;;;;9.85;2.70;;;7.60;99.90;;;;;;5054764;28;20044;-71
2024/01/01 11:23:46;;;;;;;11.43;2.80;;;7.70;99.90;;;;;;5038277;28;20040;-72
2024/01/01 11:26:34;;;;;;;8.57;2.50;;;7.70;99.90;;;;;;5038419;28;20499;-71
2024/01/01 11:29:01;;;;;;;10.00;2.40;;;7.70;99.90;;;;;;5055023;28;20044;-71
2024/01/01 11:31:28;;;;;;;10.57;2.60;;;7.70;99.90;;;;;;5054931;28;20044;-71
2024/01/01 11:34:02;;;;;;;9.20;2.50;;;7.70;99.90;;;;;;5038455;28;20397;-72
2024/01/01 11:36:28;;;;;;;12.80;2.88;;;7.60;99.90;;;;;;5037921;28;20094;-71
2024/01/01 11:38:55;;;;;;;7.97;2.42;;;7.60;99.90;;;;;;5022041;28;20037;-71
2024/01/01 11:41:26;;;;;;;11.25;2.33;;;7.60;99.90;;;;;;5038518;28;20044;-70
2024/01/01 11:43:52;;;;;;;8.82;2.38;;;7.50;99.90;;;;;;5038171;28;20044;-71
2024/01/01 11:46:25;;;;;;;7.80;2.25;;;7.50;99.90;;;;;;5037929;28;20040;-71
2024/01/01 11:48:59;;;;;;;9.05;2.30;;;7.50;99.90;;;;;;5038247;28;20457;-70
2024/01/01 11:51:26;;;;;;;10.45;2.20;;;7.50;99.90;;;;;;5038020;28;20044;-70
2024/01/01 11:54:10;;;;;;;9.30;2.10;;;7.50;99.90;;;;;;5054474;28;20097;-70
2024/01/01 11:56:38;;;;;;;9.13;2.15;;;7.50;99.90;;;;;;5037833;28;20037;-70
2024/01/01 11:59:08;;;;;;;6.53;1.80;;;7.50;99.90;;;;;;5054838;28;20511;-76
2024/01/01 12:01:37;;;;;;;9.27;2.25;;;7.50;99.90;;;;;;5054329;28;20443;-75
2024/01/01 12:04:06;;;;;;;9.25;2.20;;;7.60;99.90;;;;;;5054491;28;20099;-76
2024/01/01 12:06:33;;;;;;;9.05;2.08;;;7.70;99.90;;;;;;5054644;28;20474;-76
2024/01/01 12:09:10;;;;;;;10.80;2.38;;;7.70;99.90;;;;;;5038015;28;20401;-76
2024/01/01 12:11:41;;;;;;;8.52;2.20;;;7.80;99.90;;;;;;5054534;28;20051;-76
2024/01/01 12:14:07;;;;;;;11.18;2.47;;;7.90;99.90;;;;;;5054479;28;20511;-76
2024/01/01 12:16:35;;;;;;;10.77;2.30;;;7.90;99.90;;;;;;5054381;28;20094;-76
2024/01/01 12:19:02;;;;;;;9.90;2.45;;;8.00;99.90;;;;;;5054230;28;20033;-76
2024/01/01 12:21:38;;;;;;;11.10;2.50;;;8.00;99.90;;;;;;5037629;28;20040;-76
2024/01/01 12:24:05;;;;;;;12.20;2.65;;;8.10;99.90;;;;;;5041428;28;20037;-75
2024/01/01 12:26:33;;;;;;;12.15;2.60;;;8.10;99.90;;;;;;5058054;28;20176;-75
2024/01/01 12:29:25;;;;;;;12.13;3.17;;;8.20;99.90;;;;;;5041388;28;20036;-76
2024/01/01 12:31:53;;;;;;;13.35;2.63;;;8.20;99.90;;;;;;5056287;28;20049;-76
2024/01/01 12:34:19;;;;;;;10.20;2.80;;;8.20;99.90;;;;;;5057797;28;20063;-76
2024/01/01 12:36:47;;;;;;;14.10;2.85;;;8.20;99.90;;;;;;5041182;28;20036;-76
2024/01/01 12:39:17;;;;;;;10.35;2.28;;;8.20;99.90;;;;;;5041476;28;20537;-74
2024/01/01 12:41:43;;;;;;;11.20;2.47;;;8.10;99.90;;;;;;5041523;28;20032;-74
2024/01/01 12:44:09;;;;;;;10.13;2.25;;;8.20;99.90;;;;;;5041246;28;20120;-74
2024/01/01 12:46:35;;;;;;;10.95;2.38;;;8.10;99.90;;;;;;5057915;28;20123;-74